Time;durP1;ratioP1;P1;durP2;ratioP2;P2;SDS_P1;SDS_P2;PMS_P1;PMS_P2;Temp;Humidity;BMP_temperature;BMP_pressure;BME280_temperature;BME280_humidity;BME280_pressure;Samples;Min_cycle;Max_cycle;Signal;HPM_P1;HPM_P2
2021/05/17 00:00:35;;;;;;;0.10;0.10;;;;;;;;;;5125213;28;20218;-71
2021/05/17 00:03:02;;;;;;;0.10;0.10;;;;;;;;;;5125231;27;20241;-70
2021/05/17 00:05:29;;;;;;;0.10;0.10;;;;;;;;;;5125141;28;20523;-70
2021/05/17 00:07:55;;;;;;;0.10;0.10;;;;;;;;;;5125396;28;20390;-69
2021/05/17 00:10:21;;;;;;;0.10;0.10;;;;;;;;;;5125361;28;20201;-69
2021/05/17 00:12:47;;;;;;;0.10;0.10;;;;;;;;;;5125582;27;20302;-69
2021/05/17 00:15:15;;;;;;;0.10;0.10;;;;;;;;;;5127814;27;20208;-69
2021/05/17 00:17:42;;;;;;;0.10;0.10;;;;;;;;;;5125253;28;20493;-70
2021/05/17 00:20:09;;;;;;;0.10;0.10;;;;;;;;;;5124982;28;20225;-68
2021/05/17 00:22:35;;;;;;;0.10;0.10;;;;;;;;;;5125181;28;20400;-70
2021/05/17 00:25:01;;;;;;;0.10;0.10;;;;;;;;;;5124582;28;20205;-69
2021/05/17 00:27:27;;;;;;;0.10;0.10;;;;;;;;;;5125470;27;20548;-69
2021/05/17 00:29:54;;;;;;;0.10;0.10;;;;;;;;;;5121271;28;20407;-69
2021/05/17 00:32:19;;;;;;;0.10;0.10;;;;;;;;;;5124051;28;20229;-68
2021/05/17 00:34:46;;;;;;;0.10;0.10;;;;;;;;;;5124826;28;20282;-69
2021/05/17 00:37:12;;;;;;;0.10;0.10;;;;;;;;;;5124223;28;20211;-70
2021/05/17 00:39:38;;;;;;;0.10;0.10;;;;;;;;;;5124841;28;20295;-69
2021/05/17 00:42:04;;;;;;;0.10;0.10;;;;;;;;;;5124567;28;20221;-69
2021/05/17 00:44:31;;;;;;;0.10;0.10;;;;;;;;;;5124773;28;20225;-71
2021/05/17 00:46:57;;;;;;;0.10;0.10;;;;;;;;;;5120980;28;20206;-71
2021/05/17 00:49:23;;;;;;;0.10;0.10;;;;;;;;;;5124121;28;20209;-71
2021/05/17 00:51:49;;;;;;;0.10;0.10;;;;;;;;;;5124471;28;20237;-70
2021/05/17 00:54:15;;;;;;;0.10;0.10;;;;;;;;;;5124137;28;20198;-69
2021/05/17 00:56:42;;;;;;;0.10;0.10;;;;;;;;;;5124314;28;20212;-71
2021/05/17 00:59:08;;;;;;;0.10;0.10;;;;;;;;;;5124495;28;20210;-69
2021/05/17 01:01:34;;;;;;;0.10;0.10;;;;;;;;;;5124363;28;20241;-70
2021/05/17 01:03:59;;;;;;;0.10;0.10;;;;;;;;;;5124553;28;20503;-70
2021/05/17 01:06:26;;;;;;;0.10;0.10;;;;;;;;;;5123878;28;20197;-70
2021/05/17 01:08:57;;;;;;;0.10;0.10;;;;;;;;;;5121293;27;20218;-70
2021/05/17 01:11:25;;;;;;;0.10;0.10;;;;;;;;;;5114288;28;20191;-70
2021/05/17 01:13:51;;;;;;;0.10;0.10;;;;;;;;;;5123674;28;20435;-70
2021/05/17 01:16:17;;;;;;;0.10;0.10;;;;;;;;;;5124063;28;20204;-70
2021/05/17 01:18:43;;;;;;;0.10;0.10;;;;;;;;;;5119923;28;20247;-69
2021/05/17 01:21:09;;;;;;;0.10;0.10;;;;;;;;;;5123587;28;20283;-70
2021/05/17 01:23:46;;;;;;;0.10;0.10;;;;;;;;;;5123994;28;20415;-71
2021/05/17 01:26:12;;;;;;;0.10;0.10;;;;;;;;;;5123702;28;20461;-70
2021/05/17 01:28:39;;;;;;;0.10;0.10;;;;;;;;;;5123846;28;20198;-70
2021/05/17 01:31:06;;;;;;;0.10;0.10;;;;;;;;;;5123433;28;20194;-70
2021/05/17 01:33:32;;;;;;;0.10;0.10;;;;;;;;;;5122878;28;20239;-70
2021/05/17 01:35:59;;;;;;;0.10;0.10;;;;;;;;;;5123517;28;20235;-70
2021/05/17 01:38:26;;;;;;;0.10;0.10;;;;;;;;;;5122750;28;20202;-70
2021/05/17 01:40:53;;;;;;;0.10;0.10;;;;;;;;;;5123836;28;20445;-70
2021/05/17 01:43:20;;;;;;;0.10;0.10;;;;;;;;;;5132585;28;20220;-70
2021/05/17 01:45:46;;;;;;;0.10;0.10;;;;;;;;;;5124358;28;20202;-69
2021/05/17 01:48:12;;;;;;;0.10;0.10;;;;;;;;;;5123521;28;20198;-70
2021/05/17 01:50:38;;;;;;;0.10;0.10;;;;;;;;;;5123782;28;20235;-70
2021/05/17 01:53:04;;;;;;;0.10;0.10;;;;;;;;;;5123380;28;20265;-70
2021/05/17 01:55:30;;;;;;;0.10;0.10;;;;;;;;;;5123209;28;20201;-71
2021/05/17 01:58:06;;;;;;;0.10;0.10;;;;;;;;;;5123270;28;20217;-70
2021/05/17 02:00:32;;;;;;;0.10;0.10;;;;;;;;;;5113655;28;20288;-70
2021/05/17 02:02:58;;;;;;;0.10;0.10;;;;;;;;;;5127768;28;20312;-70
2021/05/17 02:05:24;;;;;;;0.10;0.10;;;;;;;;;;5127699;28;20240;-69
2021/05/17 02:07:50;;;;;;;0.10;0.10;;;;;;;;;;5127432;28;20214;-69
2021/05/17 02:10:16;;;;;;;0.10;0.10;;;;;;;;;;5133342;27;20237;-69
2021/05/17 02:12:42;;;;;;;0.10;0.10;;;;;;;;;;5136114;27;20207;-70
2021/05/17 02:15:10;;;;;;;0.10;0.10;;;;;;;;;;5125731;28;20204;-70
2021/05/17 02:17:36;;;;;;;1.70;1.70;;;;;;;;;;5127382;28;20209;-69
2021/05/17 02:20:02;;;;;;;0.10;0.10;;;;;;;;;;5118530;28;20195;-69
2021/05/17 02:22:28;;;;;;;0.10;0.10;;;;;;;;;;5121970;28;20267;-69
2021/05/17 02:24:54;;;;;;;0.10;0.10;;;;;;;;;;5130374;27;20274;-70
2021/05/17 02:27:20;;;;;;;0.10;0.10;;;;;;;;;;5127258;28;20200;-70
2021/05/17 02:29:46;;;;;;;0.10;0.10;;;;;;;;;;5127174;28;20276;-69
2021/05/17 02:32:19;;;;;;;0.10;0.10;;;;;;;;;;5127152;28;20404;-70
2021/05/17 02:34:45;;;;;;;0.10;0.10;;;;;;;;;;5126826;28;20196;-70
2021/05/17 02:37:11;;;;;;;0.10;0.10;;;;;;;;;;5126551;28;20286;-70
2021/05/17 02:39:37;;;;;;;0.10;0.10;;;;;;;;;;5126944;28;20202;-69
2021/05/17 02:42:03;;;;;;;0.10;0.10;;;;;;;;;;5126665;28;20221;-69
2021/05/17 02:44:29;;;;;;;0.10;0.10;;;;;;;;;;5127117;28;20410;-69
2021/05/17 02:46:56;;;;;;;0.10;0.10;;;;;;;;;;5126930;28;20209;-69
2021/05/17 02:49:24;;;;;;;0.10;0.10;;;;;;;;;;5126916;28;20200;-69
2021/05/17 02:51:49;;;;;;;0.10;0.10;;;;;;;;;;5126547;28;20528;-69
2021/05/17 02:54:24;;;;;;;0.10;0.10;;;;;;;;;;5126837;28;20266;-69
2021/05/17 02:57:14;;;;;;;0.10;0.10;;;;;;;;;;5126688;28;20199;-70
2021/05/17 02:59:58;;;;;;;0.10;0.10;;;;;;;;;;5111099;28;20204;-69
2021/05/17 03:02:29;;;;;;;0.10;0.10;;;;;;;;;;5120862;28;20203;-70
2021/05/17 03:04:56;;;;;;;0.10;0.10;;;;;;;;;;5122235;28;20203;-71
2021/05/17 03:07:24;;;;;;;0.10;0.10;;;;;;;;;;5126828;28;20215;-71
2021/05/17 03:09:50;;;;;;;0.10;0.10;;;;;;;;;;5126544;28;20247;-71
2021/05/17 03:12:16;;;;;;;0.10;0.10;;;;;;;;;;5126196;28;20208;-70
2021/05/17 03:14:43;;;;;;;0.10;0.10;;;;;;;;;;5127638;27;20208;-70
2021/05/17 03:17:10;;;;;;;0.10;0.10;;;;;;;;;;5126179;28;20531;-70
2021/05/17 03:19:36;;;;;;;0.10;0.10;;;;;;;;;;5126207;27;20196;-70
2021/05/17 03:22:04;;;;;;;0.10;0.10;;;;;;;;;;5126419;28;20400;-70
2021/05/17 03:24:33;;;;;;;0.10;0.10;;;;;;;;;;5126297;28;20228;-70
2021/05/17 03:27:07;;;;;;;0.10;0.10;;;;;;;;;;5116261;28;20220;-69
2021/05/17 03:29:32;;;;;;;0.10;0.10;;;;;;;;;;5126045;28;20205;-69
2021/05/17 03:31:59;;;;;;;0.10;0.10;;;;;;;;;;5125641;28;20228;-69
2021/05/17 03:34:25;;;;;;;0.10;0.10;;;;;;;;;;5124939;28;20219;-69
2021/05/17 03:36:51;;;;;;;0.10;0.10;;;;;;;;;;5124674;28;20227;-70
2021/05/17 03:39:17;;;;;;;0.10;0.10;;;;;;;;;;5125763;28;20216;-71
2021/05/17 03:41:43;;;;;;;0.10;0.10;;;;;;;;;;5125501;28;20249;-69
2021/05/17 03:44:09;;;;;;;0.10;0.10;;;;;;;;;;5125981;28;20209;-70
2021/05/17 03:46:34;;;;;;;0.10;0.10;;;;;;;;;;5125844;28;20211;-70
2021/05/17 03:49:00;;;;;;;0.10;0.10;;;;;;;;;;5125824;27;20212;-69
2021/05/17 03:51:26;;;;;;;0.10;0.10;;;;;;;;;;5125906;28;20202;-70
2021/05/17 03:53:52;;;;;;;0.10;0.10;;;;;;;;;;5121311;28;20489;-69
2021/05/17 03:56:18;;;;;;;0.10;0.10;;;;;;;;;;5125590;28;20205;-70
2021/05/17 03:58:44;;;;;;;0.10;0.10;;;;;;;;;;5125332;28;20397;-70
2021/05/17 04:01:09;;;;;;;0.10;0.10;;;;;;;;;;5125003;28;20228;-69
2021/05/17 04:03:35;;;;;;;0.10;0.10;;;;;;;;;;5119549;28;20230;-70
2021/05/17 04:06:11;;;;;;;0.10;0.10;;;;;;;;;;5120568;28;20202;-69
2021/05/17 04:14:05;;;;;;;0.10;0.10;;;;;;;;;;5123663;28;20494;-70
2021/05/17 04:16:31;;;;;;;0.10;0.10;;;;;;;;;;5124879;28;20198;-70
2021/05/17 04:18:56;;;;;;;0.10;0.10;;;;;;;;;;5125380;28;20197;-71
2021/05/17 04:21:22;;;;;;;0.10;0.10;;;;;;;;;;5124970;28;20273;-70
2021/05/17 04:23:48;;;;;;;0.10;0.10;;;;;;;;;;5124309;28;20241;-70
2021/05/17 04:26:13;;;;;;;0.10;0.10;;;;;;;;;;5125266;28;20252;-71
2021/05/17 04:28:40;;;;;;;0.10;0.10;;;;;;;;;;5120296;28;20230;-71
2021/05/17 04:31:06;;;;;;;0.10;0.10;;;;;;;;;;5124605;28;20204;-69
2021/05/17 04:33:32;;;;;;;0.10;0.10;;;;;;;;;;5124950;28;20241;-70
2021/05/17 04:35:57;;;;;;;0.10;0.10;;;;;;;;;;5124703;28;20251;-70
2021/05/17 04:38:23;;;;;;;0.10;0.10;;;;;;;;;;5123782;28;20200;-70
2021/05/17 04:40:49;;;;;;;0.10;0.10;;;;;;;;;;5124567;28;20424;-70
2021/05/17 04:43:14;;;;;;;0.10;0.10;;;;;;;;;;5135045;27;20214;-71
2021/05/17 04:45:41;;;;;;;0.10;0.10;;;;;;;;;;5127382;27;20201;-71
2021/05/17 04:48:07;;;;;;;0.10;0.10;;;;;;;;;;5124524;28;20209;-71
2021/05/17 04:50:33;;;;;;;0.10;0.10;;;;;;;;;;5124270;28;20199;-70
2021/05/17 04:52:59;;;;;;;0.10;0.10;;;;;;;;;;5124121;28;20212;-70
2021/05/17 04:55:25;;;;;;;0.10;0.10;;;;;;;;;;5124601;28;20208;-69
2021/05/17 04:57:51;;;;;;;0.20;0.20;;;;;;;;;;5124367;28;20202;-69
2021/05/17 05:00:17;;;;;;;0.10;0.10;;;;;;;;;;5124332;28;20249;-71
2021/05/17 05:02:44;;;;;;;0.20;0.20;;;;;;;;;;5124242;28;20211;-69
2021/05/17 05:05:10;;;;;;;0.10;0.10;;;;;;;;;;5124265;28;20207;-70
2021/05/17 05:07:36;;;;;;;0.10;0.10;;;;;;;;;;5124154;28;20208;-70
2021/05/17 05:10:04;;;;;;;0.10;0.10;;;;;;;;;;5124260;28;20201;-69
2021/05/17 05:12:30;;;;;;;0.10;0.10;;;;;;;;;;5124195;28;20200;-69
2021/05/17 05:14:55;;;;;;;0.10;0.10;;;;;;;;;;5123985;28;20489;-70
2021/05/17 05:17:21;;;;;;;0.10;0.10;;;;;;;;;;5123827;28;20214;-69
2021/05/17 05:19:48;;;;;;;0.10;0.10;;;;;;;;;;5124146;28;20266;-70
2021/05/17 05:22:14;;;;;;;0.10;0.10;;;;;;;;;;5121604;28;20231;-70
2021/05/17 05:24:40;;;;;;;0.10;0.10;;;;;;;;;;5123996;28;20286;-70
2021/05/17 05:27:12;;;;;;;0.10;0.10;;;;;;;;;;5123938;28;20270;-70
2021/05/17 05:29:48;;;;;;;0.10;0.10;;;;;;;;;;5118133;28;20230;-71
2021/05/17 05:32:24;;;;;;;0.10;0.10;;;;;;;;;;5124019;28;20216;-70
2021/05/17 05:34:50;;;;;;;0.10;0.10;;;;;;;;;;5123744;28;20203;-70
2021/05/17 05:37:16;;;;;;;0.10;0.10;;;;;;;;;;5123162;28;20275;-70
2021/05/17 05:39:43;;;;;;;0.10;0.10;;;;;;;;;;5121966;28;20533;-70
2021/05/17 05:42:08;;;;;;;0.10;0.10;;;;;;;;;;5123228;28;20227;-71
2021/05/17 05:44:42;;;;;;;0.10;0.10;;;;;;;;;;5123844;28;20235;-71
2021/05/17 05:47:08;;;;;;;0.10;0.10;;;;;;;;;;5123696;28;20278;-70
2021/05/17 05:49:33;;;;;;;0.10;0.10;;;;;;;;;;5123878;28;20200;-69
2021/05/17 05:52:01;;;;;;;0.10;0.10;;;;;;;;;;5123388;28;20210;-70
2021/05/17 05:54:27;;;;;;;0.10;0.10;;;;;;;;;;5114631;28;20214;-70
2021/05/17 05:56:52;;;;;;;0.10;0.10;;;;;;;;;;5123267;28;20492;-70
2021/05/17 05:59:18;;;;;;;0.10;0.10;;;;;;;;;;5126624;28;20225;-70
2021/05/17 06:01:44;;;;;;;0.10;0.10;;;;;;;;;;5124059;28;20535;-70
2021/05/17 06:04:10;;;;;;;0.10;0.10;;;;;;;;;;5125418;28;20292;-71
2021/05/17 06:06:35;;;;;;;0.10;0.10;;;;;;;;;;5122039;28;20204;-70
2021/05/17 06:09:03;;;;;;;0.10;0.10;;;;;;;;;;5127064;28;20314;-70
2021/05/17 06:11:29;;;;;;;0.10;0.10;;;;;;;;;;5129325;28;20251;-70
2021/05/17 06:13:55;;;;;;;0.10;0.10;;;;;;;;;;5125586;28;20508;-69
2021/05/17 06:16:21;;;;;;;0.10;0.10;;;;;;;;;;5125186;28;20252;-70
2021/05/17 06:18:47;;;;;;;0.10;0.10;;;;;;;;;;5124475;28;20198;-69
2021/05/17 06:21:13;;;;;;;0.10;0.10;;;;;;;;;;5125291;28;20214;-69
2021/05/17 06:23:39;;;;;;;0.10;0.10;;;;;;;;;;5131882;28;20352;-69
2021/05/17 06:26:07;;;;;;;0.10;0.10;;;;;;;;;;5125353;28;20491;-69
2021/05/17 06:28:33;;;;;;;0.10;0.10;;;;;;;;;;5124595;28;20202;-71
2021/05/17 06:31:02;;;;;;;0.10;0.10;;;;;;;;;;5124504;28;20205;-70
2021/05/17 06:33:28;;;;;;;0.10;0.10;;;;;;;;;;5126099;28;20210;-70
2021/05/17 06:35:56;;;;;;;0.10;0.10;;;;;;;;;;5123203;28;20208;-70
2021/05/17 06:38:22;;;;;;;0.10;0.10;;;;;;;;;;5127206;28;20236;-72
2021/05/17 06:40:48;;;;;;;0.10;0.10;;;;;;;;;;5127675;28;20231;-69
2021/05/17 06:43:15;;;;;;;0.10;0.10;;;;;;;;;;5125402;28;20204;-70
2021/05/17 06:45:41;;;;;;;0.10;0.10;;;;;;;;;;5128185;28;20278;-70
2021/05/17 06:48:08;;;;;;;0.10;0.10;;;;;;;;;;5130460;27;20268;-71
2021/05/17 06:50:34;;;;;;;0.10;0.10;;;;;;;;;;5126024;27;20211;-68
2021/05/17 06:53:00;;;;;;;0.10;0.10;;;;;;;;;;5131343;27;20223;-69
2021/05/17 06:55:30;;;;;;;0.10;0.10;;;;;;;;;;5126334;28;20214;-70
2021/05/17 06:58:11;;;;;;;0.10;0.10;;;;;;;;;;5126804;28;20533;-71
2021/05/17 07:00:38;;;;;;;0.10;0.10;;;;;;;;;;5134741;27;20228;-69
2021/05/17 07:03:06;;;;;;;0.10;0.10;;;;;;;;;;5125462;28;20206;-70
2021/05/17 07:05:32;;;;;;;0.10;0.10;;;;;;;;;;5125468;28;20238;-69
2021/05/17 07:13:23;;;;;;;0.10;0.10;;;;;;;;;;5127513;27;20386;-67
2021/05/17 07:15:50;;;;;;;0.10;0.10;;;;;;;;;;5126529;28;20209;-68
2021/05/17 07:18:16;;;;;;;0.10;0.10;;;;;;;;;;5125647;27;20359;-68
2021/05/17 07:23:38;;;;;;;0.10;0.10;;;;;;;;;;5126796;27;20199;-67
2021/05/17 07:26:06;;;;;;;0.10;0.10;;;;;;;;;;5120266;28;20271;-67
2021/05/17 07:28:32;;;;;;;0.10;0.10;;;;;;;;;;5124753;28;20314;-68
2021/05/17 07:31:02;;;;;;;0.10;0.10;;;;;;;;;;5122340;28;20210;-72
2021/05/17 07:33:28;;;;;;;0.10;0.10;;;;;;;;;;5118495;28;20232;-67
2021/05/17 07:35:54;;;;;;;0.10;0.10;;;;;;;;;;5125797;28;20290;-68
2021/05/17 07:38:24;;;;;;;0.10;0.10;;;;;;;;;;5127255;27;20207;-69
2021/05/17 07:40:49;;;;;;;0.10;0.10;;;;;;;;;;5126796;27;20264;-68
2021/05/17 07:43:16;;;;;;;0.10;0.10;;;;;;;;;;5125816;28;20212;-68
2021/05/17 07:45:42;;;;;;;0.10;0.10;;;;;;;;;;5125758;28;20594;-68
2021/05/17 07:48:11;;;;;;;0.10;0.10;;;;;;;;;;5127120;27;20201;-68
2021/05/17 07:50:37;;;;;;;0.10;0.10;;;;;;;;;;5120466;28;20213;-67
2021/05/17 07:53:03;;;;;;;0.10;0.10;;;;;;;;;;5121263;27;20202;-68
2021/05/17 07:55:29;;;;;;;0.10;0.10;;;;;;;;;;5127485;27;20209;-68
2021/05/17 07:57:55;;;;;;;0.10;0.10;;;;;;;;;;5116732;28;20236;-69
2021/05/17 08:00:21;;;;;;;0.10;0.10;;;;;;;;;;5125488;28;20201;-68
2021/05/17 08:02:46;;;;;;;0.10;0.10;;;;;;;;;;5127781;27;20382;-73
2021/05/17 08:05:13;;;;;;;0.10;0.10;;;;;;;;;;5139429;27;20205;-68
2021/05/17 08:07:39;;;;;;;0.10;0.10;;;;;;;;;;5125367;28;20213;-71
2021/05/17 08:10:08;;;;;;;0.10;0.10;;;;;;;;;;5126643;28;20216;-74
2021/05/17 08:12:34;;;;;;;0.10;0.10;;;;;;;;;;5128071;28;20219;-78
2021/05/17 08:15:00;;;;;;;0.10;0.10;;;;;;;;;;5123839;28;20272;-75
2021/05/17 08:17:26;;;;;;;0.10;0.10;;;;;;;;;;5125490;28;20211;-74
2021/05/17 08:19:52;;;;;;;0.10;0.10;;;;;;;;;;5125704;28;20207;-73
2021/05/17 08:22:19;;;;;;;0.10;0.10;;;;;;;;;;5126879;27;20407;-72
2021/05/17 08:24:45;;;;;;;0.10;0.10;;;;;;;;;;5125269;28;20210;-70
2021/05/17 08:27:11;;;;;;;0.10;0.10;;;;;;;;;;5126827;27;20210;-73
2021/05/17 08:29:37;;;;;;;0.00;0.00;;;;;;;;;;5128556;27;20204;-72
2021/05/17 08:32:07;;;;;;;0.10;0.10;;;;;;;;;;5132965;27;20220;-72
2021/05/17 08:34:33;;;;;;;0.10;0.10;;;;;;;;;;5125844;27;20207;-72
2021/05/17 08:37:00;;;;;;;0.10;0.10;;;;;;;;;;5130380;27;20299;-72
2021/05/17 08:39:27;;;;;;;0.10;0.10;;;;;;;;;;5130905;27;20222;-72
2021/05/17 08:41:53;;;;;;;0.10;0.10;;;;;;;;;;5131448;27;20410;-75
2021/05/17 08:44:19;;;;;;;0.10;0.10;;;;;;;;;;5128399;27;20199;-74
2021/05/17 08:46:47;;;;;;;0.00;0.00;;;;;;;;;;5124847;27;20227;-73
2021/05/17 08:49:13;;;;;;;0.10;0.10;;;;;;;;;;5127120;27;20461;-74
2021/05/17 08:51:39;;;;;;;0.10;0.10;;;;;;;;;;5135269;27;20196;-73
2021/05/17 08:54:06;;;;;;;0.10;0.10;;;;;;;;;;5138029;27;20210;-77
2021/05/17 08:56:34;;;;;;;0.07;0.07;;;;;;;;;;5126239;27;20202;-73
2021/05/17 08:59:01;;;;;;;0.10;0.10;;;;;;;;;;5133911;27;20211;-74
2021/05/17 09:01:27;;;;;;;0.10;0.10;;;;;;;;;;5132357;27;20222;-74
2021/05/17 09:03:54;;;;;;;0.10;0.10;;;;;;;;;;5131188;27;20240;-73
2021/05/17 09:06:23;;;;;;;0.10;0.10;;;;;;;;;;5131755;27;20205;-73
2021/05/17 09:08:49;;;;;;;0.10;0.10;;;;;;;;;;5132075;27;20206;-74
2021/05/17 09:11:28;;;;;;;0.10;0.10;;;;;;;;;;5130801;27;20265;-70
2021/05/17 09:14:07;;;;;;;0.10;0.10;;;;;;;;;;5124126;28;20208;-70
2021/05/17 09:16:43;;;;;;;0.10;0.10;;;;;;;;;;5123609;28;20389;-68
2021/05/17 09:19:10;;;;;;;0.10;0.10;;;;;;;;;;5129692;27;20195;-77
2021/05/17 09:21:44;;;;;;;0.10;0.10;;;;;;;;;;5123707;28;20227;-71
2021/05/17 09:24:29;;;;;;;0.10;0.10;;;;;;;;;;5121571;28;20242;-74
2021/05/17 09:26:55;;;;;;;0.10;0.10;;;;;;;;;;5126565;27;20411;-74
2021/05/17 09:29:23;;;;;;;0.10;0.10;;;;;;;;;;5125602;27;20199;-72
2021/05/17 09:31:49;;;;;;;0.10;0.10;;;;;;;;;;5123761;28;20250;-72
2021/05/17 09:34:16;;;;;;;0.10;0.10;;;;;;;;;;5124395;28;20200;-74
2021/05/17 09:36:42;;;;;;;0.10;0.10;;;;;;;;;;5123843;28;20253;-72
2021/05/17 09:39:10;;;;;;;0.10;0.10;;;;;;;;;;5112849;28;20256;-71
2021/05/17 09:41:37;;;;;;;0.10;0.10;;;;;;;;;;5113341;28;20527;-74
2021/05/17 09:44:03;;;;;;;0.10;0.10;;;;;;;;;;5135242;28;20203;-74
2021/05/17 09:46:48;;;;;;;0.10;0.10;;;;;;;;;;5125905;28;20496;-75
2021/05/17 09:49:14;;;;;;;0.10;0.10;;;;;;;;;;5125571;28;20472;-73
2021/05/17 09:51:40;;;;;;;0.10;0.10;;;;;;;;;;5130547;28;20223;-72
2021/05/17 09:54:11;;;;;;;0.10;0.10;;;;;;;;;;5125048;28;20235;-73
2021/05/17 09:56:37;;;;;;;0.10;0.10;;;;;;;;;;5123103;28;20195;-73
2021/05/17 09:59:06;;;;;;;0.00;0.00;;;;;;;;;;5135577;28;20269;-72
2021/05/17 10:01:33;;;;;;;0.10;0.10;;;;;;;;;;5133898;27;20217;-71
2021/05/17 10:04:01;;;;;;;0.00;0.00;;;;;;;;;;5125417;28;20203;-75
2021/05/17 10:06:27;;;;;;;0.10;0.10;;;;;;;;;;5123292;28;20195;-75
2021/05/17 10:08:54;;;;;;;0.10;0.10;;;;;;;;;;5129357;28;20207;-72
2021/05/17 10:11:21;;;;;;;0.10;0.10;;;;;;;;;;5125016;28;20252;-73
2021/05/17 10:13:47;;;;;;;0.10;0.10;;;;;;;;;;5125321;28;20209;-74
2021/05/17 10:16:14;;;;;;;0.10;0.10;;;;;;;;;;5126499;27;20211;-74
2021/05/17 10:18:41;;;;;;;0.03;0.03;;;;;;;;;;5122762;28;20201;-72
2021/05/17 10:21:09;;;;;;;0.10;0.10;;;;;;;;;;5123457;28;20223;-74
2021/05/17 10:23:37;;;;;;;0.10;0.10;;;;;;;;;;5136437;27;20201;-73
2021/05/17 10:26:11;;;;;;;0.10;0.10;;;;;;;;;;5127998;27;20213;-72
2021/05/17 10:28:38;;;;;;;0.10;0.10;;;;;;;;;;5139007;27;20198;-74
2021/05/17 10:31:11;;;;;;;0.10;0.10;;;;;;;;;;5126036;28;20350;-73
2021/05/17 10:33:37;;;;;;;0.10;0.10;;;;;;;;;;5122938;28;20301;-76
2021/05/17 10:36:06;;;;;;;0.07;0.07;;;;;;;;;;5128986;27;20390;-76
2021/05/17 10:38:37;;;;;;;0.10;0.10;;;;;;;;;;5132110;27;20199;-74
2021/05/17 10:44:18;;;;;;;0.10;0.10;;;;;;;;;;5121848;28;20487;-73
2021/05/17 10:46:47;;;;;;;0.00;0.00;;;;;;;;;;5137964;27;20558;-73
2021/05/17 10:49:33;;;;;;;0.10;0.10;;;;;;;;;;5126023;28;20199;-73
2021/05/17 10:52:18;;;;;;;0.00;0.00;;;;;;;;;;5124750;27;20395;-70
2021/05/17 10:54:45;;;;;;;0.10;0.10;;;;;;;;;;5129970;27;20241;-73
2021/05/17 10:57:18;;;;;;;0.10;0.10;;;;;;;;;;5128235;27;20435;-72
2021/05/17 11:02:29;;;;;;;0.00;0.00;;;;;;;;;;5121554;27;20566;-73
2021/05/17 11:04:57;;;;;;;0.10;0.10;;;;;;;;;;5130450;27;20234;-73
2021/05/17 11:07:27;;;;;;;0.10;0.10;;;;;;;;;;5131313;27;20206;-75
2021/05/17 11:09:59;;;;;;;0.10;0.10;;;;;;;;;;5131492;27;20226;-73
2021/05/17 11:12:56;;;;;;;0.00;0.00;;;;;;;;;;5124614;27;20354;-73
2021/05/17 11:15:22;;;;;;;0.07;0.07;;;;;;;;;;5124955;27;20196;-74
2021/05/17 11:18:01;;;;;;;0.10;0.10;;;;;;;;;;5129783;27;20206;-70
2021/05/17 11:20:47;;;;;;;0.10;0.10;;;;;;;;;;5126083;28;20202;-71
2021/05/17 11:23:14;;;;;;;0.05;0.05;;;;;;;;;;5125995;28;20261;-71
2021/05/17 11:25:52;;;;;;;0.10;0.10;;;;;;;;;;5135286;27;20225;-70
2021/05/17 11:28:19;;;;;;;0.10;0.10;;;;;;;;;;5123484;28;20196;-72
2021/05/17 11:30:45;;;;;;;0.10;0.10;;;;;;;;;;5125827;28;20262;-72
2021/05/17 11:33:12;;;;;;;0.00;0.00;;;;;;;;;;5121565;28;20289;-70
2021/05/17 11:35:38;;;;;;;0.10;0.10;;;;;;;;;;5127973;27;20556;-72
2021/05/17 11:38:07;;;;;;;0.00;0.00;;;;;;;;;;5130140;27;20223;-71
2021/05/17 11:40:33;;;;;;;0.08;0.08;;;;;;;;;;5139468;27;20205;-71
2021/05/17 11:43:00;;;;;;;0.03;0.03;;;;;;;;;;5132574;27;20228;-71
2021/05/17 11:45:27;;;;;;;0.10;0.10;;;;;;;;;;5119839;27;20210;-72
2021/05/17 11:47:53;;;;;;;0.00;0.00;;;;;;;;;;5121481;27;20212;-71
2021/05/17 11:50:19;;;;;;;0.10;0.10;;;;;;;;;;5119395;28;20249;-73
2021/05/17 11:52:46;;;;;;;0.00;0.00;;;;;;;;;;5122243;27;20489;-73
2021/05/17 11:55:12;;;;;;;0.10;0.10;;;;;;;;;;5119847;27;20224;-73
2021/05/17 11:57:40;;;;;;;0.00;0.00;;;;;;;;;;5120850;27;20415;-73
2021/05/17 12:00:08;;;;;;;0.00;0.00;;;;;;;;;;5120434;27;20201;-70
2021/05/17 12:02:34;;;;;;;0.10;0.10;;;;;;;;;;5117864;27;20538;-74
2021/05/17 12:05:00;;;;;;;0.00;0.00;;;;;;;;;;5121060;27;20249;-68
2021/05/17 12:07:26;;;;;;;0.10;0.10;;;;;;;;;;5120253;28;20207;-70
2021/05/17 12:09:52;;;;;;;0.00;0.00;;;;;;;;;;5118291;28;20242;-70
2021/05/17 12:12:19;;;;;;;0.00;0.00;;;;;;;;;;5116095;27;20208;-71
2021/05/17 12:14:45;;;;;;;0.00;0.00;;;;;;;;;;5118411;28;20204;-71
2021/05/17 12:17:16;;;;;;;0.00;0.00;;;;;;;;;;5121460;27;20198;-71
2021/05/17 12:19:43;;;;;;;0.00;0.00;;;;;;;;;;5117300;27;20211;-72
2021/05/17 12:22:10;;;;;;;0.00;0.00;;;;;;;;;;5124706;27;20311;-71
2021/05/17 12:24:36;;;;;;;0.00;0.00;;;;;;;;;;5126672;27;20422;-71
2021/05/17 12:27:03;;;;;;;0.00;0.00;;;;;;;;;;5117758;27;20202;-71
2021/05/17 12:29:30;;;;;;;0.10;0.10;;;;;;;;;;5120286;28;20214;-71
2021/05/17 12:32:09;;;;;;;0.10;0.10;;;;;;;;;;5127098;27;20218;-70
2021/05/17 12:34:36;;;;;;;0.00;0.00;;;;;;;;;;5122274;27;20258;-72
2021/05/17 12:37:02;;;;;;;0.00;0.00;;;;;;;;;;5120501;27;20230;-71
2021/05/17 12:39:28;;;;;;;0.03;0.03;;;;;;;;;;5121196;27;20211;-71
2021/05/17 12:41:53;;;;;;;0.00;0.00;;;;;;;;;;5115152;27;20514;-73
2021/05/17 12:44:29;;;;;;;0.00;0.00;;;;;;;;;;5119111;27;20424;-73
2021/05/17 12:47:05;;;;;;;0.10;0.10;;;;;;;;;;5117410;28;20235;-73
2021/05/17 12:49:49;;;;;;;0.00;0.00;;;;;;;;;;5119479;27;20237;-71
2021/05/17 12:52:35;;;;;;;0.10;0.10;;;;;;;;;;5121398;27;20213;-74
2021/05/17 12:55:11;;;;;;;0.10;0.10;;;;;;;;;;5117654;27;20203;-72
2021/05/17 12:57:48;;;;;;;0.00;0.00;;;;;;;;;;5119785;27;20203;-69
2021/05/17 13:00:16;;;;;;;0.00;0.00;;;;;;;;;;5121678;27;20203;-71
2021/05/17 13:02:42;;;;;;;0.10;0.10;;;;;;;;;;5123294;27;20225;-71
2021/05/17 13:05:09;;;;;;;0.00;0.00;;;;;;;;;;5118410;28;20376;-71
2021/05/17 13:07:50;;;;;;;0.00;0.00;;;;;;;;;;5119302;27;20230;-71
2021/05/17 13:10:15;;;;;;;0.00;0.00;;;;;;;;;;5115230;27;20232;-69
2021/05/17 13:12:49;;;;;;;0.10;0.10;;;;;;;;;;5121138;27;20208;-68
2021/05/17 13:15:19;;;;;;;0.00;0.00;;;;;;;;;;5114023;28;20237;-70
2021/05/17 13:17:54;;;;;;;0.00;0.00;;;;;;;;;;5123723;27;20270;-72
2021/05/17 13:20:21;;;;;;;0.00;0.00;;;;;;;;;;5119607;27;20388;-71
2021/05/17 13:23:30;;;;;;;0.10;0.10;;;;;;;;;;5113294;28;20564;-70
2021/05/17 13:31:42;;;;;;;0.08;0.08;;;;;;;;;;5113148;28;21405;-72
2021/05/17 13:34:09;;;;;;;0.00;0.00;;;;;;;;;;5113179;28;20516;-72
2021/05/17 13:36:36;;;;;;;0.10;0.10;;;;;;;;;;5118636;27;20220;-72
2021/05/17 13:39:03;;;;;;;0.10;0.10;;;;;;;;;;5117704;27;20319;-72
2021/05/17 13:41:29;;;;;;;0.05;0.05;;;;;;;;;;5111578;27;20226;-71
2021/05/17 13:43:54;;;;;;;0.10;0.10;;;;;;;;;;5115948;28;20307;-70
2021/05/17 13:46:20;;;;;;;0.10;0.10;;;;;;;;;;5116391;28;20296;-69
2021/05/17 13:48:51;;;;;;;0.10;0.10;;;;;;;;;;5115532;28;20203;-69
2021/05/17 13:51:18;;;;;;;0.00;0.00;;;;;;;;;;5108217;28;20428;-71
2021/05/17 13:53:44;;;;;;;0.00;0.00;;;;;;;;;;5114165;28;20286;-72
2021/05/17 13:56:10;;;;;;;0.00;0.00;;;;;;;;;;5122910;27;20206;-71
2021/05/17 13:58:38;;;;;;;0.00;0.00;;;;;;;;;;5122855;27;20210;-72
2021/05/17 14:01:04;;;;;;;0.00;0.00;;;;;;;;;;5124634;27;20213;-72
2021/05/17 14:03:30;;;;;;;0.10;0.10;;;;;;;;;;5119971;27;20231;-73
2021/05/17 14:05:55;;;;;;;0.00;0.00;;;;;;;;;;5115947;27;20203;-73
2021/05/17 14:08:21;;;;;;;0.00;0.00;;;;;;;;;;5126436;27;20241;-73
2021/05/17 14:10:48;;;;;;;0.00;0.00;;;;;;;;;;5117310;28;20202;-73
2021/05/17 14:13:14;;;;;;;0.05;0.05;;;;;;;;;;5115643;28;20557;-73
2021/05/17 14:15:40;;;;;;;0.10;0.10;;;;;;;;;;5116196;27;20226;-71
2021/05/17 14:18:06;;;;;;;0.05;0.05;;;;;;;;;;5115085;27;20205;-71
2021/05/17 14:20:32;;;;;;;0.10;0.10;;;;;;;;;;5122214;27;20280;-70
2021/05/17 14:22:58;;;;;;;0.10;0.10;;;;;;;;;;5115932;27;20227;-71
2021/05/17 14:25:24;;;;;;;0.10;0.10;;;;;;;;;;5124482;27;20226;-70
2021/05/17 14:27:51;;;;;;;0.00;0.00;;;;;;;;;;5117381;28;20204;-70
2021/05/17 14:30:18;;;;;;;0.00;0.00;;;;;;;;;;5123109;27;20477;-69
2021/05/17 14:32:44;;;;;;;0.00;0.00;;;;;;;;;;5115696;28;20227;-69
2021/05/17 14:35:10;;;;;;;0.10;0.10;;;;;;;;;;5113967;27;20212;-69
2021/05/17 14:37:36;;;;;;;0.00;0.00;;;;;;;;;;5120996;27;20530;-69
2021/05/17 14:40:03;;;;;;;0.05;0.05;;;;;;;;;;5119429;27;20403;-70
2021/05/17 14:42:29;;;;;;;0.00;0.00;;;;;;;;;;5119110;27;20224;-72
2021/05/17 14:44:56;;;;;;;0.10;0.10;;;;;;;;;;5121179;27;20341;-72
2021/05/17 14:47:23;;;;;;;0.10;0.10;;;;;;;;;;5119464;27;20258;-74
2021/05/17 14:49:49;;;;;;;0.10;0.10;;;;;;;;;;5123289;27;20208;-73
2021/05/17 14:52:15;;;;;;;0.00;0.00;;;;;;;;;;5123548;27;20217;-72
2021/05/17 14:54:41;;;;;;;0.08;0.08;;;;;;;;;;5118778;27;20327;-71
2021/05/17 14:57:07;;;;;;;0.10;0.10;;;;;;;;;;5124299;27;20485;-70
2021/05/17 14:59:33;;;;;;;0.10;0.10;;;;;;;;;;5113793;27;20271;-67
2021/05/17 15:02:00;;;;;;;0.05;0.05;;;;;;;;;;5120119;28;20219;-68
2021/05/17 15:04:26;;;;;;;0.00;0.00;;;;;;;;;;5118419;27;20245;-71
2021/05/17 15:06:52;;;;;;;0.00;0.00;;;;;;;;;;5122498;27;20214;-69
2021/05/17 15:09:18;;;;;;;0.00;0.00;;;;;;;;;;5122880;27;20485;-70
2021/05/17 15:11:44;;;;;;;0.08;0.08;;;;;;;;;;5124209;27;20205;-69